Terminal Aerodrome Forecast
Issued by NWS

Home | Current Version | Previous Version | Text Only | Print | Product List | Glossary On
Versions: 1 2 3 4 5 6 7 8 9 10 11 12 13 14 15 16 17 18 19 20 21 22 23 24 25 26
000
FTUS44 KMOB 192320
TAFBFM
TAF
KBFM 192320Z 2000/2024 24005KT P6SM VCTS FEW030CB BKN200
     FM200200 VRB03KT P6SM SCT200
     FM201500 04004KT P6SM SKC
     FM201800 12008KT P6SM SCT030 BKN200 PROB30 2018/2024 VRB15G25KT
      4SM TSRA BKN020CB=

USA.gov is the U.S. government's official web portal to all federal, state and local government web resources and services.